Time;durP1;ratioP1;P1;durP2;ratioP2;P2;SDS_P1;SDS_P2;PMS_P1;PMS_P2;Temp;Humidity;BMP_temperature;BMP_pressure;BME280_temperature;BME280_humidity;BME280_pressure;Samples;Min_cycle;Max_cycle;Signal;HPM_P1;HPM_P2
2021/09/30 00:01:46;;;;;;;9.63;6.30;;;;;;;22.59;58.49;101788.77;1763735;81;21030;-45
2021/09/30 00:04:12;;;;;;;10.93;6.72;;;;;;;22.57;58.50;101781.34;1762548;81;21023;-46
2021/09/30 00:06:38;;;;;;;11.40;6.12;;;;;;;22.55;58.52;101790.52;1686852;81;20966;-48
2021/09/30 00:09:04;;;;;;;10.32;5.67;;;;;;;22.56;58.55;101788.00;1753306;81;21654;-47
2021/09/30 00:11:32;;;;;;;10.00;5.65;;;;;;;22.58;58.60;101785.73;1749222;81;20985;-48
2021/09/30 00:17:03;;;;;;;8.63;5.67;;;;;;;22.65;58.81;101777.84;1779452;80;20993;-46
2021/09/30 00:33:20;;;;;;;8.85;5.10;;;;;;;22.75;58.53;101770.71;1748840;81;21051;-46
2021/09/30 00:35:44;;;;;;;9.45;5.55;;;;;;;22.73;58.46;101772.98;1761216;80;21035;-46
2021/09/30 00:41:10;;;;;;;8.58;5.33;;;;;;;22.69;58.35;101762.81;1770844;79;20986;-48
2021/09/30 00:48:58;;;;;;;8.58;5.50;;;;;;;22.61;58.31;101764.89;1717485;81;21037;-48
2021/09/30 02:21:08;;;;;;;6.03;4.40;;;;;;;22.18;58.45;101776.25;1697625;83;21033;-47
2021/09/30 02:25:35;;;;;;;6.50;4.08;;;;;;;22.22;58.59;101777.28;1729156;82;20894;-48
2021/09/30 02:30:42;;;;;;;7.08;4.35;;;;;;;22.27;58.79;101777.76;1747592;82;21577;-47
2021/09/30 03:00:20;;;;;;;6.42;4.15;;;;;;;;;;1715276;80;21045;-55
2021/09/30 03:02:49;;;;;;;7.95;4.47;;;;;;;22.26;58.30;101784.42;1754524;79;21047;-55
2021/09/30 03:05:15;;;;;;;6.25;3.95;;;;;;;22.24;58.30;101794.42;1757032;80;21511;-54
2021/09/30 03:07:41;;;;;;;6.25;3.85;;;;;;;22.23;58.34;101796.13;1726937;80;21298;-55
2021/09/30 03:10:09;;;;;;;8.33;4.20;;;;;;;22.22;58.33;101791.70;1713899;82;21517;-54
2021/09/30 03:12:35;;;;;;;6.03;3.90;;;;;;;22.22;58.35;101801.41;1723331;82;21077;-55
2021/09/30 03:18:11;;;;;;;5.70;4.00;;;;;;;22.23;58.34;101796.95;1732963;81;21027;-54
2021/09/30 03:23:17;;;;;;;5.37;3.60;;;;;;;22.25;58.36;101793.30;1718524;80;21086;-53
2021/09/30 03:25:46;;;;;;;5.30;3.40;;;;;;;22.31;58.35;101801.80;1714891;82;21121;-55
2021/09/30 03:28:12;;;;;;;6.70;3.52;;;;;;;22.38;58.40;101798.61;1720334;83;21047;-54
2021/09/30 03:30:38;;;;;;;4.75;3.27;;;;;;;22.44;58.51;101797.95;1756513;80;21088;-54
2021/09/30 03:33:06;;;;;;;4.67;3.33;;;;;;;22.50;58.54;101800.31;1753131;80;21269;-55
2021/09/30 03:35:33;;;;;;;6.45;3.60;;;;;;;22.54;58.57;101793.58;1751279;80;21094;-54
2021/09/30 03:38:03;;;;;;;4.53;3.20;;;;;;;22.58;58.50;101793.23;1753369;80;21081;-55
2021/09/30 03:40:29;;;;;;;5.37;3.00;;;;;;;22.63;58.44;101800.06;1720391;82;20969;-54
2021/09/30 03:42:55;;;;;;;5.28;3.22;;;;;;;22.67;58.34;101806.08;1752839;80;21065;-54
2021/09/30 03:45:22;;;;;;;7.20;3.35;;;;;;;22.70;58.25;101799.14;1754677;79;21245;-54
2021/09/30 03:47:48;;;;;;;3.77;2.58;;;;;;;22.73;58.14;101802.12;1765034;80;21501;-51
2021/09/30 03:50:17;;;;;;;4.87;2.87;;;;;;;22.75;58.07;101799.84;1714355;82;21178;-54
2021/09/30 03:55:34;;;;;;;4.80;2.50;;;;;;;22.79;57.95;101808.36;1720580;82;21112;-56
2021/09/30 04:00:33;;;;;;;3.95;2.62;;;;;;;22.80;57.82;101807.80;1753594;80;21494;-55
2021/09/30 04:02:59;;;;;;;6.75;2.72;;;;;;;22.81;57.77;101808.89;1709203;82;21053;-52
2021/09/30 04:05:25;;;;;;;9.45;2.10;;;;;;;22.81;57.74;101809.45;1719017;82;21538;-50
2021/09/30 04:07:51;;;;;;;3.10;2.47;;;;;;;22.81;57.71;101809.45;1712982;82;21082;-54
2021/09/30 04:10:18;;;;;;;3.75;2.50;;;;;;;22.83;57.69;101809.98;1689118;82;21294;-52
2021/09/30 04:12:44;;;;;;;5.00;2.85;;;;;;;22.83;57.69;101809.98;1711714;82;21500;-53
2021/09/30 04:15:10;;;;;;;37.20;12.82;;;;;;;22.83;57.68;101806.61;1719837;82;21091;-55
2021/09/30 04:17:36;;;;;;;15.25;6.12;;;;;;;22.83;57.67;101803.84;1709663;82;21591;-47
2021/09/30 04:20:04;;;;;;;32.30;12.15;;;;;;;22.83;57.66;101809.98;1710514;82;21199;-55
2021/09/30 04:22:30;;;;;;;5.80;3.12;;;;;;;22.83;57.66;101807.21;1755145;79;21095;-55
2021/09/30 04:24:57;;;;;;;243.67;107.05;;;;;;;22.83;57.68;101812.76;1751586;80;22332;-55
2021/09/30 04:27:23;;;;;;;70.10;29.75;;;;;;;22.84;57.69;101811.04;1749962;80;21086;-54
2021/09/30 04:29:49;;;;;;;39.98;15.08;;;;;;;22.87;57.70;101814.61;1755510;80;21093;-52
2021/09/30 04:32:15;;;;;;;43.73;18.90;;;;;;;22.92;57.74;101813.66;1760488;80;21067;-46
2021/09/30 04:34:42;;;;;;;13.48;5.83;;;;;;;22.95;57.85;101819.44;1777511;80;21670;-47
2021/09/30 04:37:08;;;;;;;205.27;72.60;;;;;;;23.01;57.97;101822.91;1772760;80;21135;-46
2021/09/30 04:39:35;;;;;;;43.92;16.80;;;;;;;23.05;58.04;101826.70;1769985;80;21708;-46
2021/09/30 04:42:02;;;;;;;53.25;20.60;;;;;;;23.08;58.04;101823.33;1778972;80;21005;-48
2021/09/30 04:44:29;;;;;;;64.65;23.90;;;;;;;23.11;58.02;101824.09;1719825;82;21132;-50
2021/09/30 04:46:55;;;;;;;41.70;16.80;;;;;;;23.13;57.99;101828.75;1755000;80;21861;-46
2021/09/30 04:49:21;;;;;;;17.05;8.03;;;;;;;23.15;57.96;101823.16;1755179;80;20953;-49
2021/09/30 04:51:47;;;;;;;65.55;27.48;;;;;;;23.17;57.94;101833.37;1748036;80;21085;-54
2021/09/30 04:54:13;;;;;;;23.52;8.93;;;;;;;23.18;57.90;101831.42;1760036;80;21554;-52
2021/09/30 04:56:39;;;;;;;96.00;31.62;;;;;;;23.18;57.90;101835.59;1757567;80;21142;-53
2021/09/30 04:59:05;;;;;;;20.08;7.35;;;;;;;23.18;57.93;101831.42;1759050;80;21048;-54
2021/09/30 05:01:31;;;;;;;19.48;6.87;;;;;;;23.18;57.96;101832.25;1757740;80;20996;-54
2021/09/30 05:03:57;;;;;;;19.32;7.60;;;;;;;23.17;57.96;101829.77;1750104;80;21043;-53
2021/09/30 05:06:23;;;;;;;26.93;10.63;;;;;;;23.16;57.96;101835.09;1749716;80;22393;-52
2021/09/30 05:08:50;;;;;;;23.22;9.85;;;;;;;23.14;57.98;101832.61;1717811;82;20890;-51
2021/09/30 05:11:16;;;;;;;25.75;8.23;;;;;;;23.13;58.03;101838.46;1753202;79;21982;-51
2021/09/30 05:13:43;;;;;;;15.00;6.47;;;;;;;23.13;58.06;101841.24;1717678;82;21105;-49
2021/09/30 05:16:14;;;;;;;23.77;8.70;;;;;;;23.12;58.08;101839.63;1710748;82;21144;-52
2021/09/30 05:18:45;;;;;;;52.83;16.40;;;;;;;23.10;58.12;101837.70;1711343;82;21038;-51
2021/09/30 05:21:08;;;;;;;38.10;13.83;;;;;;;23.11;58.14;101841.57;1708539;82;21106;-51
2021/09/30 05:23:35;;;;;;;18.32;7.12;;;;;;;23.14;58.21;101840.12;1692633;83;21093;-53
2021/09/30 05:26:01;;;;;;;17.32;6.62;;;;;;;23.16;58.33;101842.86;1750536;79;20971;-51
2021/09/30 05:28:27;;;;;;;19.42;7.15;;;;;;;23.19;58.47;101844.17;1752075;80;20908;-52
2021/09/30 05:30:53;;;;;;;17.50;6.17;;;;;;;23.21;58.53;101846.09;1754638;80;20872;-53
2021/09/30 05:33:20;;;;;;;15.05;6.20;;;;;;;23.23;58.57;101846.59;1754172;79;21024;-53
2021/09/30 05:35:47;;;;;;;18.42;6.90;;;;;;;23.24;58.53;101851.02;1748257;80;21481;-52
2021/09/30 05:38:14;;;;;;;17.15;6.70;;;;;;;23.27;58.46;101855.11;1759254;80;21054;-51
2021/09/30 05:40:40;;;;;;;15.55;6.30;;;;;;;23.26;58.39;101857.63;1750895;80;21015;-53
2021/09/30 05:43:15;;;;;;;12.37;5.60;;;;;;;23.26;58.32;101853.46;1770881;79;21054;-52
2021/09/30 05:45:41;;;;;;;16.07;6.15;;;;;;;23.24;58.25;101856.56;1773210;79;21133;-52
2021/09/30 05:48:06;;;;;;;15.93;6.12;;;;;;;23.23;58.20;101852.14;1769009;80;23249;-52
2021/09/30 05:50:32;;;;;;;15.90;6.53;;;;;;;23.22;58.14;101856.04;1771837;79;21106;-51
2021/09/30 05:52:58;;;;;;;15.68;5.58;;;;;;;23.20;58.11;101854.98;1774292;79;21089;-52
2021/09/30 05:55:24;;;;;;;16.40;6.03;;;;;;;23.19;58.07;101867.78;1777471;79;21537;-52
2021/09/30 05:57:50;;;;;;;10.20;4.95;;;;;;;23.17;58.02;101863.08;1777303;80;20888;-52
2021/09/30 06:11:00;;;;;;;10.25;5.15;;;;;;;23.05;57.95;101865.00;1731091;81;21065;-49
2021/09/30 06:13:33;;;;;;;10.30;5.03;;;;;;;23.03;57.94;101869.23;1698622;83;21277;-52
2021/09/30 06:15:52;;;;;;;10.93;5.35;;;;;;;23.00;57.94;101869.85;1729349;81;21019;-50
2021/09/30 06:18:19;;;;;;;13.78;5.62;;;;;;;22.97;57.94;101867.11;1776667;80;21119;-52
2021/09/30 06:20:46;;;;;;;12.40;5.87;;;;;;;22.96;57.93;101869.62;1782883;80;21016;-52
2021/09/30 06:23:12;;;;;;;13.48;5.28;;;;;;;22.93;57.93;101866.08;1738986;80;21131;-52
2021/09/30 06:25:38;;;;;;;9.83;5.10;;;;;;;22.91;57.96;101864.77;1726884;81;21578;-50
2021/09/30 06:28:05;;;;;;;9.30;4.85;;;;;;;22.88;57.96;101866.18;1782468;79;20891;-52
2021/09/30 06:30:31;;;;;;;11.00;4.85;;;;;;;22.87;57.97;101869.28;1774073;80;21045;-52
2021/09/30 06:32:57;;;;;;;12.55;5.30;;;;;;;22.89;57.97;101871.17;1779602;79;21053;-49
2021/09/30 06:35:24;;;;;;;10.58;4.80;;;;;;;22.91;58.04;101870.31;1774775;79;21567;-52
2021/09/30 06:37:50;;;;;;;9.38;4.40;;;;;;;22.93;58.14;101871.63;1781897;80;22134;-53
2021/09/30 06:40:16;;;;;;;7.58;4.33;;;;;;;22.95;58.20;101869.39;1780434;80;21565;-49
2021/09/30 06:42:42;;;;;;;11.35;4.95;;;;;;;22.96;58.23;101871.57;1778598;80;21121;-51
2021/09/30 06:45:09;;;;;;;11.08;4.75;;;;;;;22.98;58.19;101874.31;1784881;79;20907;-51
2021/09/30 06:47:37;;;;;;;10.48;4.60;;;;;;;22.99;58.14;101876.53;1732814;81;21129;-51
2021/09/30 06:50:09;;;;;;;10.30;4.28;;;;;;;23.00;58.08;101878.98;1779404;80;22128;-53
2021/09/30 06:52:35;;;;;;;9.98;4.60;;;;;;;23.01;58.00;101877.85;1777133;80;21499;-53
2021/09/30 06:55:01;;;;;;;10.13;5.00;;;;;;;23.00;57.93;101880.36;1782827;80;21060;-50
2021/09/30 06:57:28;;;;;;;9.83;4.58;;;;;;;23.00;57.87;101878.98;1782935;80;21599;-53
2021/09/30 07:00:02;;;;;;;10.58;4.92;;;;;;;22.99;57.81;101875.14;1735253;81;21192;-51
2021/09/30 07:02:25;;;;;;;8.00;4.42;;;;;;;22.97;57.77;101877.39;1783503;79;23241;-51
2021/09/30 07:04:51;;;;;;;8.85;4.85;;;;;;;22.95;57.73;101885.21;1780319;80;21081;-52
2021/09/30 07:07:17;;;;;;;8.35;4.75;;;;;;;22.93;57.70;101882.73;1783142;80;20905;-52
2021/09/30 07:09:45;;;;;;;8.95;4.28;;;;;;;22.90;57.67;101878.38;1779929;80;21101;-52
2021/09/30 07:12:13;;;;;;;10.85;4.70;;;;;;;22.89;57.65;101876.72;1780632;79;21105;-52
2021/09/30 07:14:40;;;;;;;8.23;3.85;;;;;;;22.87;57.65;101878.99;1729210;81;22094;-50
2021/09/30 07:17:06;;;;;;;11.73;4.70;;;;;;;22.85;57.64;101878.47;1783125;79;21475;-49
2021/09/30 07:19:33;;;;;;;8.88;4.75;;;;;;;22.82;57.65;101873.53;1783541;79;21046;-52
2021/09/30 07:22:07;;;;;;;8.10;4.30;;;;;;;22.80;57.63;101871.62;1743033;81;21084;-51
2021/09/30 07:24:33;;;;;;;8.33;4.47;;;;;;;22.78;57.64;101871.12;1781023;79;21104;-51
2021/09/30 07:27:01;;;;;;;7.92;4.45;;;;;;;22.75;57.63;101872.53;1779680;80;48427;-51
2021/09/30 07:29:27;;;;;;;7.70;4.15;;;;;;;22.73;57.66;101868.70;1783474;80;20952;-51
2021/09/30 07:31:53;;;;;;;7.85;4.30;;;;;;;22.71;57.63;101872.33;1782735;79;21031;-52
2021/09/30 07:34:19;;;;;;;11.88;4.22;;;;;;;22.69;57.64;101871.83;1776478;80;21669;-51
2021/09/30 07:36:45;;;;;;;8.68;4.45;;;;;;;22.67;57.66;101871.83;1773778;79;21082;-51
2021/09/30 07:39:11;;;;;;;6.47;4.03;;;;;;;22.66;57.65;101866.05;1734696;81;22113;-52
2021/09/30 07:41:37;;;;;;;7.78;4.35;;;;;;;22.63;57.66;101861.91;1782029;79;21013;-50
2021/09/30 07:44:04;;;;;;;7.20;4.03;;;;;;;22.62;57.68;101861.65;1782675;80;21036;-53
2021/09/30 07:46:34;;;;;;;7.80;4.70;;;;;;;22.62;57.67;101862.20;1778628;79;21072;-51
2021/09/30 07:49:03;;;;;;;9.75;4.00;;;;;;;22.59;57.66;101866.43;1780031;80;21097;-51
2021/09/30 07:51:29;;;;;;;9.13;4.22;;;;;;;22.58;57.69;101863.39;1779277;80;21038;-52
2021/09/30 07:53:55;;;;;;;7.65;4.08;;;;;;;22.56;57.70;101859.29;1738468;81;21114;-52
2021/09/30 07:56:23;;;;;;;6.85;3.77;;;;;;;22.59;57.69;101861.44;1777533;79;21689;-52
2021/09/30 07:58:49;;;;;;;7.40;3.83;;;;;;;22.62;57.74;101860.27;1777960;80;21548;-51
2021/09/30 08:01:16;;;;;;;8.88;4.37;;;;;;;22.66;57.85;101859.11;1779321;80;21172;-51
2021/09/30 08:03:42;;;;;;;10.20;4.15;;;;;;;22.69;57.91;101862.69;1748691;81;21317;-52
2021/09/30 08:06:08;;;;;;;7.97;4.40;;;;;;;22.72;57.95;101864.27;1786091;79;20907;-53
2021/09/30 08:08:34;;;;;;;7.65;3.98;;;;;;;22.74;57.92;101869.53;1783935;79;21009;-52
2021/09/30 08:11:00;;;;;;;7.65;4.55;;;;;;;22.75;57.85;101860.87;1741183;81;21095;-53
2021/09/30 08:13:30;;;;;;;9.18;4.17;;;;;;;22.79;57.75;101868.02;1785041;78;21148;-53
2021/09/30 08:15:55;;;;;;;6.05;3.37;;;;;;;22.80;57.69;101860.52;1731783;81;21059;-52
2021/09/30 08:18:21;;;;;;;6.72;4.00;;;;;;;22.81;57.59;101863.56;1783513;79;21260;-52
2021/09/30 08:20:47;;;;;;;7.60;3.80;;;;;;;22.81;57.55;101858.02;1740940;81;20941;-51
2021/09/30 08:23:14;;;;;;;6.53;4.10;;;;;;;22.80;57.48;101856.36;1791133;79;20914;-51
2021/09/30 08:25:41;;;;;;;7.20;3.80;;;;;;;22.78;57.43;101853.91;1778335;79;21094;-52
2021/09/30 08:28:08;;;;;;;7.05;4.20;;;;;;;22.78;57.37;101855.86;1782766;79;21173;-53
2021/09/30 08:30:35;;;;;;;6.80;3.50;;;;;;;22.75;57.32;101853.94;1778016;80;21503;-53
2021/09/30 08:33:01;;;;;;;5.75;4.12;;;;;;;22.74;57.30;101852.29;1731864;81;21618;-53
2021/09/30 08:35:27;;;;;;;6.53;3.70;;;;;;;22.73;57.27;101855.39;1781666;79;20875;-52
2021/09/30 08:37:53;;;;;;;7.37;3.80;;;;;;;22.71;57.24;101854.30;1782024;80;21095;-52
2021/09/30 08:40:19;;;;;;;5.33;3.90;;;;;;;22.69;57.27;101852.41;1779278;79;21122;-52
2021/09/30 08:42:47;;;;;;;6.40;3.58;;;;;;;22.66;57.24;101849.41;1772468;80;21108;-51
2021/09/30 08:45:20;;;;;;;5.90;3.52;;;;;;;22.65;57.22;101849.14;1771868;79;21066;-52
2021/09/30 08:47:56;;;;;;;6.05;3.25;;;;;;;22.63;57.22;101856.37;1763183;80;21071;-52
2021/09/30 08:50:22;;;;;;;7.97;3.85;;;;;;;22.60;57.23;101846.45;1766383;80;21006;-52
2021/09/30 08:52:49;;;;;;;5.70;3.47;;;;;;;22.59;57.22;101848.96;1768871;79;21550;-53
2021/09/30 08:55:20;;;;;;;7.10;3.70;;;;;;;22.56;57.24;101843.47;1756719;80;21096;-52
2021/09/30 08:57:45;;;;;;;6.05;3.75;;;;;;;22.55;57.24;101843.20;1751707;80;21125;-52
2021/09/30 09:00:13;;;;;;;6.17;3.67;;;;;;;22.54;57.24;101847.10;1721914;82;21035;-52
2021/09/30 09:02:48;;;;;;;6.28;3.45;;;;;;;22.53;57.25;101841.88;1755030;79;21052;-53
2021/09/30 09:05:14;;;;;;;5.97;3.62;;;;;;;22.51;57.24;101840.79;1703563;82;21104;-52
2021/09/30 09:08:00;;;;;;;5.15;3.45;;;;;;;22.50;57.24;101845.24;1761063;79;20995;-52
2021/09/30 09:10:37;;;;;;;5.12;3.27;;;;;;;22.48;57.28;101844.19;1760890;80;21067;-52
2021/09/30 09:13:12;;;;;;;7.15;3.60;;;;;;;22.47;57.29;101838.38;1716235;82;21524;-53
2021/09/30 09:15:42;;;;;;;5.83;3.67;;;;;;;22.46;57.29;101843.66;1769019;79;21033;-51
2021/09/30 09:18:18;;;;;;;6.03;3.58;;;;;;;22.44;57.28;101842.33;1722628;82;21310;-47
2021/09/30 09:21:05;;;;;;;5.28;3.25;;;;;;;22.43;57.32;101841.50;1760503;80;21119;-53
2021/09/30 09:23:33;;;;;;;5.10;3.05;;;;;;;22.41;57.31;101836.80;1708231;82;21493;-52
2021/09/30 09:26:13;;;;;;;5.55;3.45;;;;;;;22.41;57.32;101831.82;1762438;80;21519;-48
2021/09/30 09:28:53;;;;;;;5.45;3.15;;;;;;;22.40;57.34;101832.41;1758343;80;21128;-50
2021/09/30 09:31:31;;;;;;;6.92;3.80;;;;;;;22.39;57.33;101829.38;1710369;80;21064;-51
2021/09/30 09:33:59;;;;;;;6.25;3.67;;;;;;;22.39;57.33;101837.69;1757192;80;21037;-51
2021/09/30 09:36:26;;;;;;;5.75;3.15;;;;;;;22.39;57.37;101829.94;1763559;80;21075;-49
2021/09/30 09:38:56;;;;;;;5.05;3.52;;;;;;;22.38;57.37;101834.66;1757102;80;21099;-50
2021/09/30 09:41:33;;;;;;;4.17;3.00;;;;;;;22.41;57.38;101832.64;1720003;82;21060;-52
2021/09/30 09:44:04;;;;;;;4.90;3.08;;;;;;;22.45;57.42;101828.73;1721573;81;21507;-53
2021/09/30 09:46:35;;;;;;;4.92;3.22;;;;;;;22.50;57.52;101833.59;1719962;82;21054;-53
2021/09/30 09:49:06;;;;;;;7.28;3.70;;;;;;;22.53;57.59;101835.74;1715124;82;21031;-53
2021/09/30 09:51:47;;;;;;;5.28;3.02;;;;;;;22.57;57.58;101832.64;1717570;82;21081;-50
2021/09/30 09:54:17;;;;;;;5.20;3.45;;;;;;;22.59;57.52;101828.98;1715738;82;21512;-51
2021/09/30 09:56:43;;;;;;;5.08;3.27;;;;;;;22.63;57.45;101831.97;1727166;82;21513;-52
2021/09/30 09:59:10;;;;;;;4.85;3.08;;;;;;;22.66;57.36;101827.21;1758979;80;21078;-52
2021/09/30 10:01:47;;;;;;;5.67;3.17;;;;;;;22.67;57.24;101832.43;1755012;79;21070;-52
2021/09/30 10:04:13;;;;;;;5.35;3.72;;;;;;;22.70;57.13;101829.66;1748287;80;21513;-52
2021/09/30 10:06:40;;;;;;;5.33;3.50;;;;;;;22.71;57.06;101832.11;1758528;80;21100;-52
2021/09/30 10:09:08;;;;;;;6.10;3.15;;;;;;;22.71;56.99;101830.72;1755490;80;21319;-53
2021/09/30 10:11:36;;;;;;;4.80;3.55;;;;;;;22.73;56.93;101835.97;1759808;80;21080;-53
2021/09/30 10:14:06;;;;;;;4.15;3.12;;;;;;;22.72;56.85;101833.76;1753122;79;21114;-53
2021/09/30 10:16:33;;;;;;;4.10;3.05;;;;;;;22.74;56.82;101833.46;1761119;80;21123;-52
2021/09/30 10:19:03;;;;;;;5.55;3.67;;;;;;;22.74;56.74;101826.52;1755584;80;21045;-52
2021/09/30 10:21:30;;;;;;;4.47;3.17;;;;;;;22.74;56.69;101829.30;1752541;80;21160;-54
2021/09/30 10:24:05;;;;;;;3.90;2.70;;;;;;;22.73;56.64;101824.31;1756042;80;21059;-53
2021/09/30 10:26:44;;;;;;;4.37;3.25;;;;;;;22.72;56.62;101824.05;1750994;80;21398;-51
2021/09/30 10:29:07;;;;;;;5.20;3.33;;;;;;;22.69;56.59;101816.91;1752537;80;20993;-53
2021/09/30 10:31:36;;;;;;;4.67;3.25;;;;;;;22.67;56.60;101810.80;1717230;82;20897;-53
2021/09/30 10:34:06;;;;;;;6.35;3.25;;;;;;;22.66;56.57;101817.50;1753455;79;21275;-53
2021/09/30 10:36:44;;;;;;;4.70;3.40;;;;;;;22.65;56.55;101817.23;1764540;80;21043;-53
2021/09/30 10:39:28;;;;;;;5.05;3.12;;;;;;;22.65;56.56;101807.53;1766686;80;21260;-53
2021/09/30 10:42:02;;;;;;;4.35;3.02;;;;;;;22.64;56.56;101803.93;1768327;80;21053;-52
2021/09/30 10:44:34;;;;;;;4.05;3.25;;;;;;;22.64;56.54;101808.65;1769574;80;21055;-52
2021/09/30 10:47:08;;;;;;;5.70;3.02;;;;;;;22.64;56.54;101802.55;1728615;81;21120;-53
2021/09/30 10:49:48;;;;;;;4.85;3.22;;;;;;;22.65;56.49;101798.65;1715218;82;21101;-52
2021/09/30 10:52:24;;;;;;;5.17;3.45;;;;;;;22.63;56.49;101802.28;1726238;81;21463;-51
2021/09/30 10:54:54;;;;;;;4.03;3.10;;;;;;;22.62;56.49;101796.47;1765892;80;21499;-50
2021/09/30 10:57:38;;;;;;;3.85;2.95;;;;;;;22.62;56.49;101792.87;1761870;80;21110;-52
2021/09/30 11:00:22;;;;;;;5.05;3.02;;;;;;;22.63;56.49;101790.36;1771752;80;21581;-52
2021/09/30 11:03:10;;;;;;;5.90;3.12;;;;;;;22.63;56.49;101784.81;1750252;80;21670;-52
2021/09/30 11:05:37;;;;;;;3.92;3.15;;;;;;;22.62;56.47;101783.16;1768581;79;21159;-53
2021/09/30 11:08:26;;;;;;;4.37;3.22;;;;;;;22.61;56.46;101784.31;1732912;81;21056;-51
2021/09/30 11:11:12;;;;;;;3.95;3.00;;;;;;;22.62;56.46;101781.77;1767218;80;21067;-54
2021/09/30 11:13:46;;;;;;;4.35;3.47;;;;;;;22.62;56.45;101788.70;1766343;80;21048;-54
2021/09/30 11:16:18;;;;;;;3.33;2.72;;;;;;;22.61;56.45;101775.43;1720024;81;21048;-52
2021/09/30 11:18:53;;;;;;;4.87;3.35;;;;;;;22.62;56.44;101779.00;1763149;80;21090;-54
2021/09/30 11:21:34;;;;;;;4.12;3.35;;;;;;;22.61;56.46;101790.69;1727174;81;21112;-52
2021/09/30 11:24:14;;;;;;;5.60;3.00;;;;;;;22.62;56.44;101788.14;1763435;80;21009;-54
2021/09/30 11:26:55;;;;;;;5.50;3.40;;;;;;;22.62;56.44;101790.92;1764624;80;21510;-53
2021/09/30 11:29:25;;;;;;;5.25;2.87;;;;;;;22.62;56.45;101785.94;1758033;80;21050;-53
2021/09/30 11:32:04;;;;;;;3.90;3.05;;;;;;;22.61;56.43;101780.98;1760278;80;21084;-53
2021/09/30 11:34:34;;;;;;;4.47;2.70;;;;;;;22.62;56.43;101779.82;1769307;80;21837;-52
2021/09/30 11:37:21;;;;;;;3.58;2.98;;;;;;;22.63;56.41;101776.48;1729445;81;21057;-52
2021/09/30 11:39:50;;;;;;;4.22;2.87;;;;;;;22.63;56.41;101777.31;1731633;81;21132;-53
2021/09/30 11:42:18;;;;;;;4.72;3.20;;;;;;;22.63;56.39;101775.92;1722860;81;21072;-52
2021/09/30 11:45:00;;;;;;;4.62;2.77;;;;;;;22.63;56.39;101768.99;1702786;82;21092;-53
2021/09/30 11:47:28;;;;;;;5.10;3.42;;;;;;;22.64;56.38;101772.59;1717545;82;21065;-53
2021/09/30 11:49:55;;;;;;;4.70;3.08;;;;;;;22.65;56.38;101774.24;1761697;80;21131;-50
2021/09/30 11:52:21;;;;;;;5.42;3.30;;;;;;;22.65;56.38;101772.86;1716156;82;21310;-53
2021/09/30 11:54:47;;;;;;;4.30;3.10;;;;;;;22.66;56.36;101772.53;1727931;82;21145;-51
2021/09/30 11:57:25;;;;;;;4.78;3.33;;;;;;;22.66;56.35;101761.43;1724251;82;21031;-52
2021/09/30 11:59:51;;;;;;;5.28;3.00;;;;;;;22.67;56.37;101764.47;1703632;82;21592;-51
2021/09/30 12:02:18;;;;;;;5.65;3.22;;;;;;;22.67;56.33;101765.86;1713526;83;21559;-51
2021/09/30 12:04:49;;;;;;;3.83;2.83;;;;;;;22.68;56.33;101763.91;1753085;80;21327;-50
2021/09/30 12:07:22;;;;;;;4.12;2.98;;;;;;;22.68;56.31;101761.96;1754634;80;21024;-52
2021/09/30 12:09:55;;;;;;;4.33;3.33;;;;;;;22.68;56.31;101760.57;1762505;80;21185;-52
2021/09/30 12:12:31;;;;;;;4.03;3.25;;;;;;;22.67;56.31;101757.53;1717237;80;21073;-51
2021/09/30 12:14:57;;;;;;;4.80;3.10;;;;;;;22.67;56.28;101760.31;1725895;81;21011;-51
2021/09/30 12:17:25;;;;;;;4.90;3.08;;;;;;;22.67;56.27;101751.98;1764194;80;21226;-53
2021/09/30 12:19:56;;;;;;;5.65;3.67;;;;;;;22.67;56.27;101755.32;1759682;80;21016;-52
2021/09/30 12:22:40;;;;;;;3.72;3.00;;;;;;;22.65;56.26;101757.04;1756568;80;21047;-53
2021/09/30 12:25:17;;;;;;;4.33;3.00;;;;;;;22.60;56.26;101743.83;1757789;80;21034;-53
2021/09/30 12:27:46;;;;;;;4.62;3.12;;;;;;;22.66;56.27;101755.88;1754386;80;21314;-53
2021/09/30 12:30:23;;;;;;;4.33;3.10;;;;;;;22.66;56.25;101759.25;1757535;80;21171;-53
2021/09/30 12:32:57;;;;;;;3.75;2.87;;;;;;;22.62;56.23;101755.42;1749770;80;21120;-52
2021/09/30 12:35:32;;;;;;;4.37;3.30;;;;;;;22.65;56.22;101757.59;1752810;80;21679;-53
2021/09/30 12:38:02;;;;;;;4.42;3.30;;;;;;;22.65;56.23;101758.98;1735990;80;20982;-53
2021/09/30 12:40:37;;;;;;;;;;;;;;;22.65;56.23;101757.59;1756854;80;21074;-51
2021/09/30 12:43:12;;;;;;;4.22;3.25;;;;;;;22.64;56.23;101757.34;1757526;79;21810;-51
2021/09/30 12:45:49;;;;;;;4.92;3.10;;;;;;;22.62;56.24;101753.47;1739993;80;21527;-51
2021/09/30 12:48:19;;;;;;;3.83;3.10;;;;;;;22.62;56.25;101755.42;1744833;81;21047;-52
2021/09/30 12:50:59;;;;;;;7.53;3.22;;;;;;;22.62;56.24;101753.47;1749334;81;21127;-51
2021/09/30 12:53:25;;;;;;;6.17;3.40;;;;;;;22.63;56.23;101748.19;1738659;81;20977;-53
2021/09/30 12:55:52;;;;;;;3.52;2.87;;;;;;;22.64;56.22;101747.06;1704948;83;21073;-53
2021/09/30 12:58:36;;;;;;;4.55;3.52;;;;;;;22.64;56.20;101750.40;1718042;81;21043;-53
2021/09/30 13:01:34;;;;;;;5.55;2.90;;;;;;;22.65;56.22;101749.28;1741372;81;21075;-53
2021/09/30 13:04:11;;;;;;;4.05;3.00;;;;;;;22.66;56.20;101753.70;1706961;83;21142;-53
2021/09/30 13:07:03;;;;;;;4.33;3.22;;;;;;;22.65;56.20;101752.88;1742552;81;21116;-50
2021/09/30 13:09:35;;;;;;;3.75;2.95;;;;;;;22.65;56.19;101754.27;1741299;81;21110;-51
2021/09/30 13:12:03;;;;;;;4.05;3.17;;;;;;;22.64;56.20;101755.95;1746419;81;21488;-50
2021/09/30 13:14:38;;;;;;;4.10;2.92;;;;;;;22.64;56.20;101747.06;1751451;81;21087;-50
2021/09/30 13:17:21;;;;;;;5.60;3.45;;;;;;;22.64;56.18;101744.85;1707565;81;21044;-50
2021/09/30 13:19:56;;;;;;;4.17;3.15;;;;;;;22.63;56.18;101749.58;1738594;81;21115;-53
2021/09/30 13:22:36;;;;;;;4.87;2.87;;;;;;;22.62;56.18;101743.77;1742842;80;21228;-53
2021/09/30 13:25:03;;;;;;;6.35;2.95;;;;;;;22.58;56.18;101739.97;1735101;81;21052;-53
2021/09/30 13:27:32;;;;;;;4.42;2.90;;;;;;;22.62;56.21;101747.92;1714044;81;21063;-51
2021/09/30 13:29:58;;;;;;;4.35;3.12;;;;;;;22.63;56.21;101749.58;1740447;81;21096;-53
2021/09/30 13:32:26;;;;;;;5.62;3.33;;;;;;;22.62;56.21;101738.22;1738751;81;21025;-52
2021/09/30 13:34:55;;;;;;;3.35;2.85;;;;;;;22.62;56.19;101745.15;1735711;81;21316;-53
2021/09/30 13:37:22;;;;;;;5.40;3.40;;;;;;;22.63;56.20;101745.98;1744746;81;21055;-54
2021/09/30 13:39:49;;;;;;;6.20;3.40;;;;;;;22.61;56.18;101742.14;1703813;83;22222;-53
2021/09/30 13:42:15;;;;;;;4.97;2.67;;;;;;;22.62;56.19;101735.44;1739654;81;21116;-53
2021/09/30 13:44:41;;;;;;;4.35;2.90;;;;;;;22.62;56.18;101737.39;1756189;80;21052;-53
2021/09/30 13:47:08;;;;;;;4.35;3.27;;;;;;;22.62;56.17;101734.05;1712851;82;21473;-53
2021/09/30 13:49:36;;;;;;;5.03;3.15;;;;;;;22.62;56.18;101733.23;1717498;82;21555;-53
2021/09/30 13:52:03;;;;;;;6.12;3.60;;;;;;;22.61;56.18;101729.66;1715712;82;21025;-53
2021/09/30 13:54:29;;;;;;;5.80;3.50;;;;;;;22.61;56.17;101733.83;1722038;82;21057;-53
2021/09/30 13:56:55;;;;;;;5.78;3.30;;;;;;;22.62;56.16;101731.84;1765804;80;21049;-53
2021/09/30 13:59:21;;;;;;;5.85;3.50;;;;;;;22.62;56.16;101731.28;1716539;82;21236;-52
2021/09/30 14:01:47;;;;;;;3.98;2.92;;;;;;;22.63;56.15;101728.77;1712140;82;21619;-53
2021/09/30 14:04:13;;;;;;;5.30;3.65;;;;;;;22.63;56.15;101729.34;1722290;81;20918;-53
2021/09/30 14:06:39;;;;;;;3.90;3.08;;;;;;;22.63;56.14;101727.39;1721260;82;21597;-52
2021/09/30 14:09:05;;;;;;;4.65;3.33;;;;;;;22.64;56.15;101730.98;1756328;79;21118;-51
2021/09/30 14:11:32;;;;;;;5.05;3.30;;;;;;;22.63;56.15;101723.22;1761498;80;21640;-51
2021/09/30 14:13:58;;;;;;;4.75;2.98;;;;;;;22.65;56.14;101725.70;1757326;80;20989;-52
2021/09/30 14:16:24;;;;;;;3.80;2.20;;;;;;;22.67;56.14;101722.03;1754177;79;21740;-47
2021/09/30 14:18:51;;;;;;;3.75;2.37;;;;;;;22.67;56.11;101718.70;1762725;80;21072;-48
2021/09/30 14:21:17;;;;;;;3.65;2.22;;;;;;;22.69;56.09;101719.26;1712492;82;21366;-48
2021/09/30 14:23:44;;;;;;;6.15;2.40;;;;;;;22.71;56.07;101717.55;1722808;82;21531;-49